createdAt,value
2022-10-22T00:01:00.202Z,11.23
2022-10-22T00:03:28.249Z,10.13
2022-10-22T00:05:56.258Z,11.37
2022-10-22T00:08:25.627Z,10.47
2022-10-22T00:10:53.849Z,10.30
2022-10-22T00:13:22.071Z,9.67
2022-10-22T00:15:50.110Z,9.47
2022-10-22T00:18:18.193Z,9.20
2022-10-22T00:20:46.144Z,9.93
2022-10-22T00:23:14.086Z,9.43
2022-10-22T00:25:43.371Z,9.23
2022-10-22T00:28:12.575Z,9.33
2022-10-22T00:30:40.607Z,9.53
2022-10-22T00:33:08.554Z,10.07
2022-10-22T00:35:36.511Z,9.60
2022-10-22T00:38:04.455Z,9.63
2022-10-22T00:40:32.715Z,9.80
2022-10-22T00:43:02.053Z,9.13
2022-10-22T00:45:30.804Z,10.20
2022-10-22T00:48:02.794Z,9.37
2022-10-22T00:50:35.331Z,9.60
2022-10-22T00:53:05.297Z,8.73
2022-10-22T00:55:34.795Z,9.00
2022-10-22T00:58:04.498Z,8.77
2022-10-22T01:00:32.926Z,9.00
2022-10-22T01:03:01.279Z,8.87
2022-10-22T01:05:30.591Z,8.73
2022-10-22T01:07:58.843Z,9.27
2022-10-22T01:10:40.095Z,9.47
2022-10-22T01:13:20.158Z,9.27
2022-10-22T01:15:57.770Z,9.00
2022-10-22T01:18:32.796Z,9.30
2022-10-22T01:21:09.678Z,9.40
2022-10-22T01:24:01.426Z,9.27
2022-10-22T01:26:40.908Z,9.20
2022-10-22T01:29:14.431Z,9.23
2022-10-22T01:31:48.251Z,9.23
2022-10-22T01:34:19.378Z,9.43
2022-10-22T01:36:49.229Z,9.50
2022-10-22T01:39:18.380Z,9.40
2022-10-22T01:41:47.083Z,9.30
2022-10-22T01:44:27.959Z,9.20
2022-10-22T01:47:05.631Z,9.40
2022-10-22T01:49:45.590Z,8.80
2022-10-22T01:52:26.047Z,9.60
2022-10-22T01:55:03.796Z,9.50
2022-10-22T01:57:43.251Z,9.37
2022-10-22T02:00:15.765Z,10.40
2022-10-22T02:02:51.930Z,9.53
2022-10-22T02:05:25.120Z,8.57
2022-10-22T02:07:56.450Z,8.97
2022-10-22T02:10:26.006Z,9.73
2022-10-22T02:12:56.972Z,8.70
2022-10-22T02:15:28.764Z,8.83
2022-10-22T02:17:59.591Z,9.70
2022-10-22T02:20:29.924Z,9.37
2022-10-22T02:22:58.503Z,10.20
2022-10-22T02:25:30.317Z,10.10
2022-10-22T02:28:05.486Z,9.10
2022-10-22T02:30:36.910Z,9.27
2022-10-22T02:33:11.917Z,9.50
2022-10-22T02:35:42.594Z,9.40
2022-10-22T02:38:11.971Z,9.40
2022-10-22T02:40:40.204Z,9.43
2022-10-22T02:43:08.434Z,9.67
2022-10-22T02:45:38.252Z,9.00
2022-10-22T02:48:06.934Z,9.53
2022-10-22T02:50:34.902Z,9.73
2022-10-22T02:53:02.848Z,9.93
2022-10-22T02:55:30.856Z,10.43
2022-10-22T02:57:58.772Z,9.83
2022-10-22T03:00:26.723Z,9.87
2022-10-22T03:02:56.059Z,10.63
2022-10-22T03:05:23.974Z,9.97
2022-10-22T03:07:51.908Z,9.80
2022-10-22T03:10:19.852Z,9.97
2022-10-22T03:12:48.313Z,9.90
2022-10-22T03:15:16.389Z,9.40
2022-10-22T03:17:44.357Z,9.77
2022-10-22T03:20:13.681Z,9.27
2022-10-22T03:22:43.462Z,10.17
2022-10-22T03:25:15.512Z,10.10
2022-10-22T03:27:44.021Z,9.30
2022-10-22T03:30:12.826Z,10.57
2022-10-22T03:32:40.922Z,9.87
2022-10-22T03:35:09.464Z,9.77
2022-10-22T03:37:39.900Z,9.60
2022-10-22T03:40:11.503Z,10.23
2022-10-22T03:42:39.657Z,9.60
2022-10-22T03:45:08.983Z,9.10
2022-10-22T03:47:37.960Z,9.77
2022-10-22T03:50:07.356Z,9.57
2022-10-22T03:52:39.452Z,9.80
2022-10-22T03:55:08.644Z,9.67
2022-10-22T03:57:36.751Z,9.60
2022-10-22T04:00:06.193Z,9.60
2022-10-22T04:02:34.171Z,9.23
2022-10-22T04:05:02.241Z,9.87
2022-10-22T04:07:30.270Z,9.53
2022-10-22T04:09:59.526Z,9.43
2022-10-22T04:12:27.583Z,9.73
2022-10-22T04:14:55.558Z,10.17
2022-10-22T04:17:23.596Z,10.23
2022-10-22T04:19:51.530Z,10.23
2022-10-22T04:22:19.446Z,11.70
2022-10-22T04:24:47.422Z,11.63
2022-10-22T04:27:16.744Z,12.43
2022-10-22T04:29:44.678Z,11.70
2022-10-22T04:32:12.638Z,12.63
2022-10-22T04:34:40.563Z,12.30
2022-10-22T04:37:08.494Z,10.50
2022-10-22T04:39:36.457Z,10.23
2022-10-22T04:42:04.838Z,10.13
2022-10-22T04:44:34.343Z,9.37
2022-10-22T04:47:02.260Z,9.27
2022-10-22T04:49:30.330Z,9.80
2022-10-22T04:51:58.267Z,9.17
2022-10-22T04:54:29.058Z,9.13
2022-10-22T04:57:00.235Z,9.67
2022-10-22T04:59:28.223Z,9.30
2022-10-22T05:01:57.502Z,9.80
2022-10-22T05:04:25.526Z,9.77
2022-10-22T05:06:53.567Z,10.60
2022-10-22T05:09:22.197Z,10.53
2022-10-22T05:11:52.537Z,10.93
2022-10-22T05:14:22.701Z,11.53
2022-10-22T05:16:51.019Z,11.30
2022-10-22T05:19:24.042Z,12.07
2022-10-22T05:21:52.222Z,12.00
2022-10-22T05:24:20.543Z,11.73
2022-10-22T05:26:50.810Z,12.70
2022-10-22T05:29:19.297Z,12.33
2022-10-22T05:31:47.524Z,12.47
2022-10-22T05:34:15.779Z,12.60
2022-10-22T05:36:45.439Z,13.33
2022-10-22T05:39:13.842Z,11.83
2022-10-22T05:41:41.828Z,11.37
2022-10-22T05:44:12.199Z,11.80
2022-10-22T05:46:40.244Z,10.80
2022-10-22T05:49:08.733Z,10.60
2022-10-22T05:51:38.264Z,10.60
2022-10-22T05:54:11.032Z,9.47
2022-10-22T05:56:39.889Z,11.00
2022-10-22T05:59:07.830Z,10.30
2022-10-22T06:01:36.383Z,11.57
2022-10-22T06:04:07.194Z,10.03
2022-10-22T06:06:40.014Z,10.60
2022-10-22T06:09:15.618Z,11.03
2022-10-22T06:11:43.698Z,11.20
2022-10-22T06:14:12.060Z,10.30
2022-10-22T06:16:40.645Z,10.30
2022-10-22T06:19:09.364Z,10.43
2022-10-22T06:21:37.310Z,9.97
2022-10-22T06:24:05.556Z,9.43
2022-10-22T06:26:34.888Z,10.37
2022-10-22T06:29:03.135Z,9.73
2022-10-22T06:31:36.602Z,10.17
2022-10-22T06:34:05.007Z,10.37
2022-10-22T06:36:32.997Z,9.97
2022-10-22T06:39:01.007Z,10.63
2022-10-22T06:41:29.765Z,10.23
2022-10-22T06:44:00.108Z,10.90
2022-10-22T06:46:28.309Z,9.90
2022-10-22T06:48:59.680Z,10.00
2022-10-22T06:51:28.709Z,10.27
2022-10-22T06:53:57.650Z,10.70
2022-10-22T06:56:28.455Z,10.63
2022-10-22T06:58:59.658Z,10.73
2022-10-22T07:01:30.162Z,10.50
2022-10-22T07:03:58.240Z,11.43
2022-10-22T07:06:27.533Z,10.60
2022-10-22T07:08:56.157Z,10.60
2022-10-22T07:11:26.496Z,10.13
2022-10-22T07:13:56.436Z,10.27
2022-10-22T07:16:29.648Z,10.83
2022-10-22T07:19:00.151Z,10.07
2022-10-22T07:21:28.461Z,10.07
2022-10-22T07:23:56.579Z,9.83
2022-10-22T07:26:27.144Z,9.77
2022-10-22T07:28:55.090Z,10.17
2022-10-22T07:31:23.031Z,10.80
2022-10-22T07:33:52.447Z,9.53
2022-10-22T07:36:20.521Z,10.53
2022-10-22T07:38:55.312Z,10.50
2022-10-22T07:41:23.697Z,10.80
2022-10-22T07:43:51.935Z,11.13
2022-10-22T07:46:20.292Z,10.68
2022-10-22T07:48:48.371Z,11.43
2022-10-22T07:51:18.308Z,11.30
2022-10-22T07:53:46.239Z,12.00
2022-10-22T07:56:14.347Z,11.38
2022-10-22T07:58:42.610Z,10.60
2022-10-22T08:01:10.602Z,11.73
2022-10-22T08:03:38.680Z,11.00
2022-10-22T08:06:07.280Z,11.32
2022-10-22T08:08:36.618Z,12.88
2022-10-22T08:11:04.637Z,12.20
2022-10-22T08:13:32.912Z,11.37
2022-10-22T08:16:01.846Z,11.88
2022-10-22T08:18:30.615Z,12.60
2022-10-22T08:20:59.306Z,11.25
2022-10-22T08:23:28.627Z,11.73
2022-10-22T08:25:59.617Z,11.77
2022-10-22T08:28:29.646Z,13.60
2022-10-22T08:30:57.679Z,12.70
2022-10-22T08:33:25.622Z,12.87
2022-10-22T08:35:54.191Z,12.27
2022-10-22T08:38:22.238Z,12.40
2022-10-22T08:40:52.701Z,11.87
2022-10-22T08:43:51.089Z,11.17
2022-10-22T08:46:29.493Z,11.77
2022-10-22T08:49:01.612Z,11.73
2022-10-22T08:51:32.752Z,13.23
2022-10-22T08:54:19.629Z,12.80
2022-10-22T08:56:54.333Z,12.20
2022-10-22T08:59:29.216Z,12.03
2022-10-22T09:01:57.206Z,12.07
2022-10-22T09:04:31.273Z,12.33
2022-10-22T09:07:00.860Z,12.80
2022-10-22T09:09:35.071Z,13.30
2022-10-22T09:12:05.042Z,12.53
2022-10-22T09:14:34.379Z,13.90
2022-10-22T09:17:15.072Z,13.23
2022-10-22T09:19:54.547Z,13.13
2022-10-22T09:22:30.798Z,12.90
2022-10-22T09:25:03.309Z,11.50
2022-10-22T09:27:32.733Z,11.67
2022-10-22T09:30:03.266Z,11.30
2022-10-22T09:32:32.437Z,12.70
2022-10-22T09:35:00.623Z,11.80
2022-10-22T09:37:30.963Z,10.70
2022-10-22T09:40:04.784Z,11.90
2022-10-22T09:42:34.929Z,12.50
2022-10-22T09:45:04.457Z,11.65
2022-10-22T09:47:43.354Z,12.07
2022-10-22T09:50:29.403Z,12.27
2022-10-22T09:53:01.603Z,11.82
2022-10-22T09:55:29.940Z,12.23
2022-10-22T09:58:00.825Z,13.88
2022-10-22T10:00:31.469Z,13.55
2022-10-22T10:03:01.003Z,13.35
2022-10-22T10:05:31.400Z,14.10
2022-10-22T10:08:01.774Z,13.77
2022-10-22T10:10:36.180Z,13.32
2022-10-22T10:13:14.408Z,14.85
2022-10-22T10:15:50.243Z,15.40
2022-10-22T10:18:31.941Z,16.20
2022-10-22T10:21:10.654Z,15.43
2022-10-22T10:23:47.901Z,15.25
2022-10-22T10:26:24.758Z,13.60
2022-10-22T10:29:14.296Z,12.35
2022-10-22T10:31:58.479Z,13.30
2022-10-22T10:34:37.379Z,12.68
2022-10-22T10:37:18.967Z,12.95
2022-10-22T10:40:11.299Z,11.75
2022-10-22T10:42:44.880Z,13.23
2022-10-22T10:45:19.729Z,12.32
2022-10-22T10:48:08.826Z,12.02
2022-10-22T10:50:44.396Z,11.60
2022-10-22T10:53:22.761Z,12.50
2022-10-22T10:56:00.664Z,12.38
2022-10-22T10:58:36.991Z,12.23
2022-10-22T11:01:15.367Z,11.48
2022-10-22T11:04:22.088Z,12.57
2022-10-22T11:06:51.552Z,13.38
2022-10-22T11:09:26.253Z,13.67
2022-10-22T11:11:58.956Z,13.20
2022-10-22T11:14:31.638Z,14.80
2022-10-22T11:17:06.197Z,15.73
2022-10-22T11:19:50.895Z,15.13
2022-10-22T11:22:27.238Z,15.35
2022-10-22T11:25:01.190Z,14.85
2022-10-22T11:27:37.094Z,15.18
2022-10-22T11:30:12.564Z,14.37
2022-10-22T11:32:42.604Z,14.77
2022-10-22T11:35:16.533Z,14.80
2022-10-22T11:37:46.716Z,14.97
2022-10-22T11:40:20.085Z,15.60
2022-10-22T11:42:51.779Z,15.57
2022-10-22T11:45:32.371Z,15.13
2022-10-22T11:48:07.307Z,15.53
2022-10-22T11:50:56.730Z,15.43
2022-10-22T11:53:32.266Z,15.83
2022-10-22T11:56:22.108Z,15.25
2022-10-22T11:58:53.729Z,15.70
2022-10-22T12:01:42.235Z,15.17
2022-10-22T12:04:22.561Z,14.63
2022-10-22T12:07:01.034Z,14.90
2022-10-22T12:09:32.407Z,15.13
2022-10-22T12:12:11.576Z,14.93
2022-10-22T12:14:53.305Z,14.07
2022-10-22T12:17:23.728Z,15.20
2022-10-22T12:19:58.528Z,15.80
2022-10-22T12:22:32.710Z,15.87
2022-10-22T12:25:03.173Z,14.80
2022-10-22T12:27:37.091Z,15.30
2022-10-22T12:30:19.223Z,14.73
2022-10-22T12:32:47.170Z,14.23
2022-10-22T12:35:19.827Z,13.63
2022-10-22T12:37:52.489Z,15.10
2022-10-22T12:40:22.733Z,14.90
2022-10-22T12:42:55.488Z,14.90
2022-10-22T12:45:26.927Z,14.90
2022-10-22T12:47:58.869Z,14.63
2022-10-22T12:50:33.934Z,14.80
2022-10-22T12:53:03.200Z,14.93
2022-10-22T12:55:34.798Z,15.27
2022-10-22T12:58:07.027Z,15.13
2022-10-22T13:00:37.300Z,14.97
2022-10-22T13:03:08.264Z,14.40
2022-10-22T13:05:39.784Z,14.63
2022-10-22T13:08:11.530Z,14.03
2022-10-22T13:10:41.220Z,14.33
2022-10-22T13:13:24.068Z,14.57
2022-10-22T13:15:52.007Z,15.33
2022-10-22T13:18:22.462Z,14.67
2022-10-22T13:20:55.140Z,15.60
2022-10-22T13:23:29.977Z,14.53
2022-10-22T13:26:00.354Z,15.60
2022-10-22T13:28:29.546Z,14.80
2022-10-22T13:30:59.887Z,15.43
2022-10-22T13:33:34.509Z,15.60
2022-10-22T13:36:02.826Z,15.57
2022-10-22T13:38:32.202Z,15.23
2022-10-22T13:41:00.688Z,14.73
2022-10-22T13:43:28.638Z,15.17
2022-10-22T13:45:59.999Z,16.47
2022-10-22T13:48:30.840Z,15.17
2022-10-22T13:50:59.008Z,15.20
2022-10-22T13:53:29.515Z,17.23
2022-10-22T13:55:58.842Z,17.20
2022-10-22T13:58:26.815Z,16.33
2022-10-22T14:00:57.089Z,16.97
2022-10-22T14:03:28.162Z,16.10
2022-10-22T14:05:56.290Z,16.60
2022-10-22T14:08:26.513Z,16.37
2022-10-22T14:10:54.687Z,17.70
2022-10-22T14:13:24.022Z,18.23
2022-10-22T14:15:53.274Z,16.20
2022-10-22T14:18:25.598Z,16.25
2022-10-22T14:20:56.022Z,16.50
2022-10-22T14:23:26.542Z,16.93
2022-10-22T14:25:54.967Z,15.60
2022-10-22T14:28:24.300Z,17.03
2022-10-22T14:30:53.054Z,16.90
2022-10-22T14:33:27.214Z,17.97
2022-10-22T14:36:00.176Z,18.37
2022-10-22T14:38:28.190Z,17.50
2022-10-22T14:40:56.547Z,18.33
2022-10-22T14:43:27.568Z,17.25
2022-10-22T14:45:56.076Z,17.40
2022-10-22T14:48:24.258Z,18.30
2022-10-22T14:50:52.255Z,17.03
2022-10-22T14:53:20.234Z,19.40
2022-10-22T14:55:49.225Z,18.07
2022-10-22T14:58:17.314Z,17.13
2022-10-22T15:00:46.690Z,18.30
2022-10-22T15:03:14.705Z,18.30
2022-10-22T15:05:44.367Z,17.67
2022-10-22T15:08:13.318Z,19.93
2022-10-22T15:10:41.621Z,20.90
2022-10-22T15:13:09.813Z,20.40
2022-10-22T15:15:39.749Z,20.13
2022-10-22T15:18:09.375Z,19.50
2022-10-22T15:20:37.334Z,19.17
2022-10-22T15:23:05.294Z,21.27
2022-10-22T15:25:33.535Z,19.70
2022-10-22T15:28:09.058Z,21.60
2022-10-22T15:30:38.051Z,21.37
2022-10-22T15:33:06.730Z,21.77
2022-10-22T15:35:36.019Z,22.77
2022-10-22T15:38:06.571Z,22.00
2022-10-22T15:40:34.549Z,24.03
2022-10-22T15:43:02.524Z,23.03
2022-10-22T15:45:30.450Z,25.10
2022-10-22T15:47:58.763Z,27.27
2022-10-22T15:50:26.749Z,24.83
2022-10-22T15:52:56.023Z,25.23
2022-10-22T15:55:23.934Z,25.20
2022-10-22T15:57:58.021Z,26.70
2022-10-22T16:00:28.694Z,26.73
2022-10-22T16:02:56.660Z,24.33
2022-10-22T16:05:24.935Z,25.03
2022-10-22T16:07:55.744Z,25.57
2022-10-22T16:10:25.473Z,24.57
2022-10-22T16:12:54.633Z,25.20
2022-10-22T16:15:22.628Z,23.63
2022-10-22T16:17:52.497Z,23.97
2022-10-22T16:20:20.460Z,23.07
2022-10-22T16:22:50.935Z,23.97
2022-10-22T16:25:18.917Z,22.73
2022-10-22T16:27:51.757Z,23.33
2022-10-22T16:30:19.696Z,23.20
2022-10-22T16:32:47.638Z,22.07
2022-10-22T16:35:15.697Z,22.60
2022-10-22T16:37:44.332Z,21.43
2022-10-22T16:40:13.602Z,23.00
2022-10-22T16:42:42.050Z,22.97
2022-10-22T16:45:11.800Z,22.50
2022-10-22T16:47:40.310Z,23.30
2022-10-22T16:50:09.656Z,22.60
2022-10-22T16:52:37.696Z,23.40
2022-10-22T16:55:06.234Z,23.50
2022-10-22T16:57:35.885Z,24.40
2022-10-22T17:00:04.828Z,25.60
2022-10-22T17:02:35.258Z,24.20
2022-10-22T17:05:03.208Z,24.03
2022-10-22T17:07:31.130Z,23.47
2022-10-22T17:09:59.057Z,25.20
2022-10-22T17:12:26.973Z,26.07
2022-10-22T17:14:54.931Z,23.53
2022-10-22T17:17:22.874Z,26.60
2022-10-22T17:19:52.170Z,24.00
2022-10-22T17:22:20.154Z,25.70
2022-10-22T17:24:48.092Z,27.20
2022-10-22T17:27:16.064Z,27.93
2022-10-22T17:29:43.982Z,26.43
2022-10-22T17:32:11.931Z,27.53
2022-10-22T17:34:40.448Z,28.03
2022-10-22T17:37:09.720Z,30.23
2022-10-22T17:39:37.686Z,29.57
2022-10-22T17:42:06.258Z,27.50
2022-10-22T17:44:34.172Z,29.77
2022-10-22T17:47:02.093Z,28.30
2022-10-22T17:49:30.008Z,29.23
2022-10-22T17:51:58.028Z,28.83
2022-10-22T17:54:27.302Z,28.70
2022-10-22T17:56:55.230Z,28.10
2022-10-22T17:59:23.162Z,27.17
2022-10-22T18:01:51.128Z,25.67
2022-10-22T18:04:22.035Z,26.37
2022-10-22T18:06:50.430Z,24.40
2022-10-22T18:09:19.708Z,24.30
2022-10-22T18:11:50.325Z,24.17
2022-10-22T18:14:19.116Z,24.37
2022-10-22T18:16:47.525Z,24.37
2022-10-22T18:19:17.552Z,24.40
2022-10-22T18:21:45.587Z,24.67
2022-10-22T18:24:15.584Z,25.35
2022-10-22T18:26:43.769Z,24.13
2022-10-22T18:29:17.146Z,25.80
2022-10-22T18:31:45.343Z,26.53
2022-10-22T18:34:13.722Z,27.13
2022-10-22T18:36:42.326Z,27.13
2022-10-22T18:39:13.387Z,28.50
2022-10-22T18:41:41.338Z,32.40
2022-10-22T18:44:09.511Z,33.07
2022-10-22T18:46:39.682Z,29.67
2022-10-22T18:49:08.373Z,27.83
2022-10-22T18:51:36.872Z,28.13
2022-10-22T18:54:21.392Z,26.83
2022-10-22T18:56:49.975Z,26.13
2022-10-22T18:59:20.898Z,28.87
2022-10-22T19:01:51.324Z,31.20
2022-10-22T19:04:19.398Z,29.10
2022-10-22T19:06:47.428Z,28.07
2022-10-22T19:09:16.083Z,27.87
2022-10-22T19:11:44.858Z,25.83
2022-10-22T19:14:14.708Z,24.67
2022-10-22T19:16:42.808Z,25.07
2022-10-22T19:19:16.369Z,24.40
2022-10-22T19:21:44.355Z,23.60
2022-10-22T19:24:13.091Z,24.53
2022-10-22T19:26:41.636Z,25.20
2022-10-22T19:29:10.943Z,23.87
2022-10-22T19:31:40.851Z,26.43
2022-10-22T19:34:08.797Z,27.07
2022-10-22T19:36:38.119Z,27.83
2022-10-22T19:39:07.696Z,28.97
2022-10-22T19:41:36.216Z,28.60
2022-10-22T19:44:04.251Z,27.27
2022-10-22T19:46:32.714Z,27.60
2022-10-22T19:49:02.604Z,27.43
2022-10-22T19:51:31.917Z,28.87
2022-10-22T19:54:03.233Z,30.63
2022-10-22T19:56:32.384Z,29.00
2022-10-22T19:59:00.620Z,28.13
2022-10-22T20:01:29.002Z,28.97
2022-10-22T20:03:57.088Z,29.77
2022-10-22T20:06:25.149Z,28.57
2022-10-22T20:08:55.964Z,28.07
2022-10-22T20:11:28.225Z,26.80
2022-10-22T20:13:56.667Z,27.67
2022-10-22T20:16:28.567Z,28.20
2022-10-22T20:19:00.047Z,28.40
2022-10-22T20:21:28.327Z,29.67
2022-10-22T20:23:57.484Z,30.10
2022-10-22T20:26:28.877Z,28.97
2022-10-22T20:28:57.511Z,29.03
2022-10-22T20:31:28.402Z,28.20
2022-10-22T20:33:57.800Z,25.67
2022-10-22T20:36:27.240Z,25.33
2022-10-22T20:39:00.740Z,25.80
2022-10-22T20:41:30.392Z,24.67
2022-10-22T20:43:58.329Z,23.17
2022-10-22T20:46:29.178Z,23.17
2022-10-22T20:49:00.317Z,24.00
2022-10-22T20:51:28.496Z,24.03
2022-10-22T20:53:56.490Z,23.90
2022-10-22T20:56:24.754Z,22.57
2022-10-22T20:59:04.098Z,22.97
2022-10-22T21:01:34.050Z,23.27
2022-10-22T21:04:01.978Z,23.57
2022-10-22T21:06:30.789Z,23.53
2022-10-22T21:08:58.843Z,24.00
2022-10-22T21:11:26.927Z,22.93
2022-10-22T21:13:56.255Z,23.27
2022-10-22T21:16:24.251Z,22.83
2022-10-22T21:18:52.571Z,23.80
2022-10-22T21:21:20.560Z,23.00
2022-10-22T21:23:50.187Z,22.10
2022-10-22T21:26:18.965Z,23.27
2022-10-22T21:28:47.165Z,23.10
2022-10-22T21:31:21.861Z,22.13
2022-10-22T21:33:50.800Z,21.00
2022-10-22T21:36:22.746Z,22.50
2022-10-22T21:38:51.887Z,23.27
2022-10-22T21:41:22.272Z,23.23
2022-10-22T21:43:50.993Z,24.80
2022-10-22T21:46:22.492Z,24.57
2022-10-22T21:48:54.744Z,22.80
2022-10-22T21:51:24.147Z,23.30
2022-10-22T21:56:27.311Z,22.47
2022-10-22T21:58:55.721Z,22.70
2022-10-22T22:01:25.569Z,23.63
2022-10-22T22:03:53.859Z,22.67
2022-10-22T22:06:24.181Z,24.50
2022-10-22T22:08:53.969Z,22.37
2022-10-22T22:11:24.012Z,22.07
2022-10-22T22:13:52.648Z,22.80
2022-10-22T22:16:28.116Z,21.63
2022-10-22T22:18:57.277Z,23.17
2022-10-22T22:21:25.308Z,22.53
2022-10-22T22:23:53.354Z,22.23
2022-10-22T22:26:26.704Z,22.70
2022-10-22T22:28:58.108Z,22.13
2022-10-22T22:31:29.627Z,21.47
2022-10-22T22:34:01.732Z,20.17
2022-10-22T22:36:33.136Z,21.07
2022-10-22T22:39:01.227Z,20.90
2022-10-22T22:41:29.167Z,19.52
2022-10-22T22:43:57.146Z,20.00
2022-10-22T22:46:25.204Z,22.03
2022-10-22T22:48:54.493Z,19.80
2022-10-22T22:51:22.699Z,21.73
2022-10-22T22:53:50.702Z,19.13
2022-10-22T22:56:21.323Z,20.37
2022-10-22T22:58:49.864Z,20.90
2022-10-22T23:01:19.526Z,20.13
2022-10-22T23:03:49.402Z,20.07
2022-10-22T23:06:18.719Z,20.80
2022-10-22T23:08:50.160Z,19.90
2022-10-22T23:11:18.205Z,19.67
2022-10-22T23:13:46.251Z,20.17
2022-10-22T23:16:16.056Z,20.40
2022-10-22T23:18:44.722Z,19.77
2022-10-22T23:21:15.406Z,18.93
2022-10-22T23:23:48.834Z,20.20
2022-10-22T23:26:19.397Z,20.13
2022-10-22T23:28:47.530Z,19.40
2022-10-22T23:31:16.438Z,20.70
2022-10-22T23:33:45.088Z,21.40
2022-10-22T23:36:13.778Z,18.90
2022-10-22T23:38:42.213Z,20.50
2022-10-22T23:41:11.942Z,21.97
2022-10-22T23:43:39.956Z,21.97
2022-10-22T23:46:10.273Z,20.23
2022-10-22T23:48:39.070Z,21.27
2022-10-22T23:51:08.636Z,21.67
2022-10-22T23:53:36.671Z,21.53
2022-10-22T23:56:06.198Z,20.63
2022-10-22T23:58:36.422Z,21.87
